sensor_id;sensor_type;location;lat;lon;timestamp;P1;durP1;ratioP1;P2;durP2;ratioP2
23519;SDS011;11936;50.820;4.336;2023-04-20T00:01:25;4.18;;;3.17;;
23519;SDS011;11936;50.820;4.336;2023-04-20T00:03:51;5.30;;;3.70;;
23519;SDS011;11936;50.820;4.336;2023-04-20T00:06:16;6.85;;;3.30;;
23519;SDS011;11936;50.820;4.336;2023-04-20T00:08:42;6.10;;;3.55;;
23519;SDS011;11936;50.820;4.336;2023-04-20T00:11:08;5.90;;;3.30;;
23519;SDS011;11936;50.820;4.336;2023-04-20T00:13:33;3.63;;;3.10;;
23519;SDS011;11936;50.820;4.336;2023-04-20T00:15:59;3.95;;;2.97;;
23519;SDS011;11936;50.820;4.336;2023-04-20T00:18:25;6.70;;;3.70;;
23519;SDS011;11936;50.820;4.336;2023-04-20T00:20:50;10.13;;;3.50;;
23519;SDS011;11936;50.820;4.336;2023-04-20T00:23:16;4.72;;;3.10;;
23519;SDS011;11936;50.820;4.336;2023-04-20T00:25:41;11.48;;;3.60;;
23519;SDS011;11936;50.820;4.336;2023-04-20T00:28:07;5.57;;;3.50;;
23519;SDS011;11936;50.820;4.336;2023-04-20T00:30:32;8.82;;;3.65;;
23519;SDS011;11936;50.820;4.336;2023-04-20T00:32:58;4.43;;;3.65;;
23519;SDS011;11936;50.820;4.336;2023-04-20T00:35:23;4.10;;;3.22;;
23519;SDS011;11936;50.820;4.336;2023-04-20T00:37:49;7.40;;;3.70;;
23519;SDS011;11936;50.820;4.336;2023-04-20T00:40:15;6.22;;;3.20;;
23519;SDS011;11936;50.820;4.336;2023-04-20T00:42:40;4.18;;;3.03;;
23519;SDS011;11936;50.820;4.336;2023-04-20T00:45:06;8.45;;;3.47;;
23519;SDS011;11936;50.820;4.336;2023-04-20T00:47:34;4.85;;;3.60;;
23519;SDS011;11936;50.820;4.336;2023-04-20T00:49:59;10.63;;;4.10;;
23519;SDS011;11936;50.820;4.336;2023-04-20T00:52:25;4.32;;;3.22;;
23519;SDS011;11936;50.820;4.336;2023-04-20T00:54:51;5.88;;;3.53;;
23519;SDS011;11936;50.820;4.336;2023-04-20T00:57:17;13.95;;;3.72;;
23519;SDS011;11936;50.820;4.336;2023-04-20T00:59:47;6.40;;;3.75;;
23519;SDS011;11936;50.820;4.336;2023-04-20T01:02:16;5.40;;;3.35;;
23519;SDS011;11936;50.820;4.336;2023-04-20T01:04:42;6.60;;;3.50;;
23519;SDS011;11936;50.820;4.336;2023-04-20T01:07:09;4.30;;;3.20;;
23519;SDS011;11936;50.820;4.336;2023-04-20T01:09:38;4.25;;;3.25;;
23519;SDS011;11936;50.820;4.336;2023-04-20T01:14:30;8.02;;;3.47;;
23519;SDS011;11936;50.820;4.336;2023-04-20T01:16:55;7.13;;;3.10;;
23519;SDS011;11936;50.820;4.336;2023-04-20T01:19:22;6.45;;;3.28;;
23519;SDS011;11936;50.820;4.336;2023-04-20T01:21:48;9.60;;;3.28;;
23519;SDS011;11936;50.820;4.336;2023-04-20T01:24:13;7.50;;;3.47;;
23519;SDS011;11936;50.820;4.336;2023-04-20T01:26:39;7.75;;;3.47;;
23519;SDS011;11936;50.820;4.336;2023-04-20T01:29:04;6.93;;;3.75;;
23519;SDS011;11936;50.820;4.336;2023-04-20T01:31:30;5.93;;;3.60;;
23519;SDS011;11936;50.820;4.336;2023-04-20T01:33:56;6.82;;;3.50;;
23519;SDS011;11936;50.820;4.336;2023-04-20T01:36:21;6.05;;;3.50;;
23519;SDS011;11936;50.820;4.336;2023-04-20T01:38:47;7.82;;;4.03;;
23519;SDS011;11936;50.820;4.336;2023-04-20T01:41:13;10.55;;;3.65;;
23519;SDS011;11936;50.820;4.336;2023-04-20T01:43:39;3.92;;;3.20;;
23519;SDS011;11936;50.820;4.336;2023-04-20T01:46:05;7.40;;;3.92;;
23519;SDS011;11936;50.820;4.336;2023-04-20T01:48:31;4.40;;;3.30;;
23519;SDS011;11936;50.820;4.336;2023-04-20T01:50:57;11.70;;;4.20;;
23519;SDS011;11936;50.820;4.336;2023-04-20T01:53:22;4.78;;;3.40;;
23519;SDS011;11936;50.820;4.336;2023-04-20T01:55:49;6.97;;;4.05;;
23519;SDS011;11936;50.820;4.336;2023-04-20T01:58:15;8.73;;;3.22;;
23519;SDS011;11936;50.820;4.336;2023-04-20T02:00:41;4.55;;;3.55;;
23519;SDS011;11936;50.820;4.336;2023-04-20T02:03:07;8.00;;;3.35;;
23519;SDS011;11936;50.820;4.336;2023-04-20T02:05:33;7.60;;;3.47;;
23519;SDS011;11936;50.820;4.336;2023-04-20T02:07:58;10.32;;;3.83;;
23519;SDS011;11936;50.820;4.336;2023-04-20T02:10:24;8.63;;;3.92;;
23519;SDS011;11936;50.820;4.336;2023-04-20T02:12:49;9.73;;;3.28;;
23519;SDS011;11936;50.820;4.336;2023-04-20T02:15:15;8.65;;;3.55;;
23519;SDS011;11936;50.820;4.336;2023-04-20T02:17:41;8.63;;;3.80;;
23519;SDS011;11936;50.820;4.336;2023-04-20T02:20:08;5.50;;;3.47;;
23519;SDS011;11936;50.820;4.336;2023-04-20T02:22:34;9.70;;;3.70;;
23519;SDS011;11936;50.820;4.336;2023-04-20T02:25:01;5.25;;;3.50;;
23519;SDS011;11936;50.820;4.336;2023-04-20T02:27:28;10.27;;;3.60;;
23519;SDS011;11936;50.820;4.336;2023-04-20T02:29:54;10.38;;;3.60;;
23519;SDS011;11936;50.820;4.336;2023-04-20T02:32:20;7.05;;;3.47;;
23519;SDS011;11936;50.820;4.336;2023-04-20T02:34:45;6.43;;;3.58;;
23519;SDS011;11936;50.820;4.336;2023-04-20T02:37:11;5.82;;;3.47;;
23519;SDS011;11936;50.820;4.336;2023-04-20T02:39:37;7.68;;;3.42;;
23519;SDS011;11936;50.820;4.336;2023-04-20T02:42:04;5.85;;;3.47;;
23519;SDS011;11936;50.820;4.336;2023-04-20T02:44:29;4.95;;;3.17;;
23519;SDS011;11936;50.820;4.336;2023-04-20T02:46:55;7.88;;;2.72;;
23519;SDS011;11936;50.820;4.336;2023-04-20T02:49:21;5.30;;;3.30;;
23519;SDS011;11936;50.820;4.336;2023-04-20T02:51:46;9.68;;;3.35;;
23519;SDS011;11936;50.820;4.336;2023-04-20T02:54:12;6.03;;;3.88;;
23519;SDS011;11936;50.820;4.336;2023-04-20T02:56:37;5.47;;;2.97;;
23519;SDS011;11936;50.820;4.336;2023-04-20T02:59:03;7.65;;;3.75;;
23519;SDS011;11936;50.820;4.336;2023-04-20T03:01:28;28.92;;;4.43;;
23519;SDS011;11936;50.820;4.336;2023-04-20T03:03:54;4.35;;;3.40;;
23519;SDS011;11936;50.820;4.336;2023-04-20T03:06:20;7.82;;;3.35;;
23519;SDS011;11936;50.820;4.336;2023-04-20T03:08:45;6.35;;;3.38;;
23519;SDS011;11936;50.820;4.336;2023-04-20T03:11:11;15.00;;;3.40;;
23519;SDS011;11936;50.820;4.336;2023-04-20T03:13:37;9.63;;;4.03;;
23519;SDS011;11936;50.820;4.336;2023-04-20T03:16:02;8.70;;;3.50;;
23519;SDS011;11936;50.820;4.336;2023-04-20T03:18:29;5.47;;;3.03;;
23519;SDS011;11936;50.820;4.336;2023-04-20T03:20:55;10.80;;;3.63;;
23519;SDS011;11936;50.820;4.336;2023-04-20T03:23:21;4.32;;;2.83;;
23519;SDS011;11936;50.820;4.336;2023-04-20T03:25:46;5.45;;;2.92;;
23519;SDS011;11936;50.820;4.336;2023-04-20T03:28:13;6.53;;;3.10;;
23519;SDS011;11936;50.820;4.336;2023-04-20T03:30:40;5.85;;;3.30;;
23519;SDS011;11936;50.820;4.336;2023-04-20T03:33:05;5.88;;;3.22;;
23519;SDS011;11936;50.820;4.336;2023-04-20T03:35:31;8.60;;;3.45;;
23519;SDS011;11936;50.820;4.336;2023-04-20T03:37:56;9.10;;;3.30;;
23519;SDS011;11936;50.820;4.336;2023-04-20T03:40:22;5.35;;;3.60;;
23519;SDS011;11936;50.820;4.336;2023-04-20T03:42:48;8.35;;;2.88;;
23519;SDS011;11936;50.820;4.336;2023-04-20T03:45:14;6.32;;;3.42;;
23519;SDS011;11936;50.820;4.336;2023-04-20T03:47:40;5.20;;;3.60;;
23519;SDS011;11936;50.820;4.336;2023-04-20T03:50:05;9.45;;;3.30;;
23519;SDS011;11936;50.820;4.336;2023-04-20T03:52:31;6.38;;;3.40;;
23519;SDS011;11936;50.820;4.336;2023-04-20T03:54:57;7.05;;;3.80;;
23519;SDS011;11936;50.820;4.336;2023-04-20T03:57:22;14.93;;;3.80;;
23519;SDS011;11936;50.820;4.336;2023-04-20T03:59:48;7.10;;;3.30;;
23519;SDS011;11936;50.820;4.336;2023-04-20T04:02:14;13.77;;;3.95;;
23519;SDS011;11936;50.820;4.336;2023-04-20T04:04:40;5.22;;;3.28;;
23519;SDS011;11936;50.820;4.336;2023-04-20T04:07:06;6.93;;;3.20;;
23519;SDS011;11936;50.820;4.336;2023-04-20T04:09:31;7.28;;;3.10;;
23519;SDS011;11936;50.820;4.336;2023-04-20T04:11:57;7.82;;;3.95;;
23519;SDS011;11936;50.820;4.336;2023-04-20T04:14:22;14.10;;;4.20;;
23519;SDS011;11936;50.820;4.336;2023-04-20T04:16:48;9.00;;;3.60;;
23519;SDS011;11936;50.820;4.336;2023-04-20T04:19:14;8.88;;;3.70;;
23519;SDS011;11936;50.820;4.336;2023-04-20T04:21:39;11.73;;;3.05;;
23519;SDS011;11936;50.820;4.336;2023-04-20T04:24:05;7.07;;;3.83;;
23519;SDS011;11936;50.820;4.336;2023-04-20T04:26:31;7.15;;;3.80;;
23519;SDS011;11936;50.820;4.336;2023-04-20T04:28:57;6.90;;;3.40;;
23519;SDS011;11936;50.820;4.336;2023-04-20T04:31:23;11.48;;;3.50;;
23519;SDS011;11936;50.820;4.336;2023-04-20T04:33:49;9.23;;;3.72;;
23519;SDS011;11936;50.820;4.336;2023-04-20T04:36:15;7.50;;;3.85;;
23519;SDS011;11936;50.820;4.336;2023-04-20T04:38:41;6.40;;;3.30;;
23519;SDS011;11936;50.820;4.336;2023-04-20T04:41:10;9.85;;;3.30;;
23519;SDS011;11936;50.820;4.336;2023-04-20T04:43:37;7.53;;;3.13;;
23519;SDS011;11936;50.820;4.336;2023-04-20T04:46:06;6.50;;;3.30;;
23519;SDS011;11936;50.820;4.336;2023-04-20T04:48:36;8.20;;;3.60;;
23519;SDS011;11936;50.820;4.336;2023-04-20T04:51:02;8.02;;;3.28;;
23519;SDS011;11936;50.820;4.336;2023-04-20T04:53:28;10.32;;;3.55;;
23519;SDS011;11936;50.820;4.336;2023-04-20T04:55:54;5.82;;;3.72;;
23519;SDS011;11936;50.820;4.336;2023-04-20T04:58:19;11.05;;;3.72;;
23519;SDS011;11936;50.820;4.336;2023-04-20T05:00:45;6.00;;;3.33;;
23519;SDS011;11936;50.820;4.336;2023-04-20T05:03:10;12.32;;;4.47;;
23519;SDS011;11936;50.820;4.336;2023-04-20T05:05:36;13.63;;;4.10;;
23519;SDS011;11936;50.820;4.336;2023-04-20T05:08:02;11.60;;;3.65;;
23519;SDS011;11936;50.820;4.336;2023-04-20T05:10:27;7.47;;;3.28;;
23519;SDS011;11936;50.820;4.336;2023-04-20T05:12:53;9.75;;;3.95;;
23519;SDS011;11936;50.820;4.336;2023-04-20T05:15:19;8.70;;;3.60;;
23519;SDS011;11936;50.820;4.336;2023-04-20T05:17:45;10.70;;;4.25;;
23519;SDS011;11936;50.820;4.336;2023-04-20T05:20:10;5.70;;;3.60;;
23519;SDS011;11936;50.820;4.336;2023-04-20T05:22:36;8.05;;;3.60;;
23519;SDS011;11936;50.820;4.336;2023-04-20T05:25:02;7.22;;;3.33;;
23519;SDS011;11936;50.820;4.336;2023-04-20T05:27:31;10.10;;;3.95;;
23519;SDS011;11936;50.820;4.336;2023-04-20T05:29:57;10.02;;;3.88;;
23519;SDS011;11936;50.820;4.336;2023-04-20T05:32:22;8.63;;;3.88;;
23519;SDS011;11936;50.820;4.336;2023-04-20T05:34:48;10.40;;;3.55;;
23519;SDS011;11936;50.820;4.336;2023-04-20T05:37:14;18.70;;;4.28;;
23519;SDS011;11936;50.820;4.336;2023-04-20T05:39:40;21.27;;;5.03;;
23519;SDS011;11936;50.820;4.336;2023-04-20T05:42:05;9.85;;;4.47;;
23519;SDS011;11936;50.820;4.336;2023-04-20T05:44:31;9.75;;;4.10;;
23519;SDS011;11936;50.820;4.336;2023-04-20T05:46:57;8.77;;;3.75;;
23519;SDS011;11936;50.820;4.336;2023-04-20T05:49:23;10.25;;;4.15;;
23519;SDS011;11936;50.820;4.336;2023-04-20T05:51:51;15.43;;;5.10;;
23519;SDS011;11936;50.820;4.336;2023-04-20T05:54:16;8.38;;;3.42;;
23519;SDS011;11936;50.820;4.336;2023-04-20T05:56:42;7.70;;;3.60;;
23519;SDS011;11936;50.820;4.336;2023-04-20T05:59:07;5.05;;;3.22;;
23519;SDS011;11936;50.820;4.336;2023-04-20T06:01:33;9.90;;;4.05;;
23519;SDS011;11936;50.820;4.336;2023-04-20T06:03:59;6.35;;;3.67;;
23519;SDS011;11936;50.820;4.336;2023-04-20T06:06:25;11.93;;;4.32;;
23519;SDS011;11936;50.820;4.336;2023-04-20T06:08:50;10.50;;;3.95;;
23519;SDS011;11936;50.820;4.336;2023-04-20T06:11:17;10.60;;;4.07;;
23519;SDS011;11936;50.820;4.336;2023-04-20T06:13:42;8.13;;;4.15;;
23519;SDS011;11936;50.820;4.336;2023-04-20T06:16:08;8.75;;;4.15;;
23519;SDS011;11936;50.820;4.336;2023-04-20T06:18:34;8.20;;;3.88;;
23519;SDS011;11936;50.820;4.336;2023-04-20T06:21:01;10.95;;;4.38;;
23519;SDS011;11936;50.820;4.336;2023-04-20T06:23:27;12.10;;;5.10;;
23519;SDS011;11936;50.820;4.336;2023-04-20T06:25:53;7.47;;;4.15;;
23519;SDS011;11936;50.820;4.336;2023-04-20T06:28:18;5.85;;;3.45;;
23519;SDS011;11936;50.820;4.336;2023-04-20T06:30:44;11.10;;;4.20;;
23519;SDS011;11936;50.820;4.336;2023-04-20T06:33:09;7.82;;;4.00;;
23519;SDS011;11936;50.820;4.336;2023-04-20T06:35:40;11.63;;;4.28;;
23519;SDS011;11936;50.820;4.336;2023-04-20T06:38:06;12.60;;;3.83;;
23519;SDS011;11936;50.820;4.336;2023-04-20T06:40:32;11.93;;;3.88;;
23519;SDS011;11936;50.820;4.336;2023-04-20T06:42:58;7.07;;;3.97;;
23519;SDS011;11936;50.820;4.336;2023-04-20T06:45:23;7.70;;;3.92;;
23519;SDS011;11936;50.820;4.336;2023-04-20T06:47:49;17.88;;;4.70;;
23519;SDS011;11936;50.820;4.336;2023-04-20T06:50:14;7.57;;;3.75;;
23519;SDS011;11936;50.820;4.336;2023-04-20T06:52:40;8.10;;;4.45;;
23519;SDS011;11936;50.820;4.336;2023-04-20T06:55:06;11.23;;;4.30;;
23519;SDS011;11936;50.820;4.336;2023-04-20T06:57:32;6.57;;;4.00;;
23519;SDS011;11936;50.820;4.336;2023-04-20T06:59:58;7.22;;;4.53;;
23519;SDS011;11936;50.820;4.336;2023-04-20T07:02:23;10.50;;;5.55;;
23519;SDS011;11936;50.820;4.336;2023-04-20T07:04:49;6.93;;;4.10;;
23519;SDS011;11936;50.820;4.336;2023-04-20T07:07:15;10.23;;;4.28;;
23519;SDS011;11936;50.820;4.336;2023-04-20T07:09:40;6.93;;;3.78;;
23519;SDS011;11936;50.820;4.336;2023-04-20T07:12:06;7.80;;;4.65;;
23519;SDS011;11936;50.820;4.336;2023-04-20T07:14:32;5.85;;;3.83;;
23519;SDS011;11936;50.820;4.336;2023-04-20T07:16:57;8.27;;;4.47;;
23519;SDS011;11936;50.820;4.336;2023-04-20T07:19:23;11.30;;;5.00;;
23519;SDS011;11936;50.820;4.336;2023-04-20T07:21:49;7.65;;;4.57;;
23519;SDS011;11936;50.820;4.336;2023-04-20T07:24:14;12.55;;;4.85;;
23519;SDS011;11936;50.820;4.336;2023-04-20T07:26:40;7.60;;;4.57;;
23519;SDS011;11936;50.820;4.336;2023-04-20T07:29:05;11.30;;;4.75;;
23519;SDS011;11936;50.820;4.336;2023-04-20T07:31:31;7.57;;;4.90;;
23519;SDS011;11936;50.820;4.336;2023-04-20T07:33:56;11.55;;;4.70;;
23519;SDS011;11936;50.820;4.336;2023-04-20T07:36:22;8.00;;;4.25;;
23519;SDS011;11936;50.820;4.336;2023-04-20T07:38:48;8.70;;;4.82;;
23519;SDS011;11936;50.820;4.336;2023-04-20T07:41:13;12.70;;;4.80;;
23519;SDS011;11936;50.820;4.336;2023-04-20T07:43:40;6.90;;;4.75;;
23519;SDS011;11936;50.820;4.336;2023-04-20T07:46:05;12.50;;;4.55;;
23519;SDS011;11936;50.820;4.336;2023-04-20T07:48:34;11.25;;;4.88;;
23519;SDS011;11936;50.820;4.336;2023-04-20T07:53:26;19.95;;;5.13;;
23519;SDS011;11936;50.820;4.336;2023-04-20T07:55:53;10.45;;;5.50;;
23519;SDS011;11936;50.820;4.336;2023-04-20T07:58:18;10.63;;;5.43;;
23519;SDS011;11936;50.820;4.336;2023-04-20T08:00:45;10.38;;;4.90;;
23519;SDS011;11936;50.820;4.336;2023-04-20T08:03:11;6.28;;;4.65;;
23519;SDS011;11936;50.820;4.336;2023-04-20T08:05:37;10.38;;;5.78;;
23519;SDS011;11936;50.820;4.336;2023-04-20T08:08:04;12.55;;;5.50;;
23519;SDS011;11936;50.820;4.336;2023-04-20T08:10:30;8.45;;;4.90;;
23519;SDS011;11936;50.820;4.336;2023-04-20T08:12:56;8.07;;;5.05;;
23519;SDS011;11936;50.820;4.336;2023-04-20T08:15:22;11.30;;;5.13;;
23519;SDS011;11936;50.820;4.336;2023-04-20T08:17:48;12.98;;;4.65;;
23519;SDS011;11936;50.820;4.336;2023-04-20T08:20:13;13.50;;;5.35;;
23519;SDS011;11936;50.820;4.336;2023-04-20T08:22:39;12.65;;;6.38;;
23519;SDS011;11936;50.820;4.336;2023-04-20T08:25:05;8.02;;;5.07;;
23519;SDS011;11936;50.820;4.336;2023-04-20T08:27:31;13.90;;;5.15;;
23519;SDS011;11936;50.820;4.336;2023-04-20T08:29:56;10.15;;;5.07;;
23519;SDS011;11936;50.820;4.336;2023-04-20T08:32:22;9.32;;;4.55;;
23519;SDS011;11936;50.820;4.336;2023-04-20T08:34:50;9.57;;;4.78;;
23519;SDS011;11936;50.820;4.336;2023-04-20T08:37:17;12.50;;;4.93;;
23519;SDS011;11936;50.820;4.336;2023-04-20T08:39:43;9.30;;;4.85;;
23519;SDS011;11936;50.820;4.336;2023-04-20T08:42:09;12.05;;;6.20;;
23519;SDS011;11936;50.820;4.336;2023-04-20T08:44:35;8.77;;;4.70;;
23519;SDS011;11936;50.820;4.336;2023-04-20T08:47:00;10.57;;;5.38;;
23519;SDS011;11936;50.820;4.336;2023-04-20T08:49:27;8.05;;;5.53;;
23519;SDS011;11936;50.820;4.336;2023-04-20T08:51:57;10.57;;;5.47;;
23519;SDS011;11936;50.820;4.336;2023-04-20T08:54:22;17.60;;;5.38;;
23519;SDS011;11936;50.820;4.336;2023-04-20T08:56:48;8.32;;;4.65;;
23519;SDS011;11936;50.820;4.336;2023-04-20T08:59:14;8.43;;;4.45;;
23519;SDS011;11936;50.820;4.336;2023-04-20T09:01:41;8.98;;;6.00;;
23519;SDS011;11936;50.820;4.336;2023-04-20T09:04:23;10.88;;;5.38;;
23519;SDS011;11936;50.820;4.336;2023-04-20T09:06:54;9.57;;;4.97;;
23519;SDS011;11936;50.820;4.336;2023-04-20T09:09:21;10.45;;;5.32;;
23519;SDS011;11936;50.820;4.336;2023-04-20T09:11:58;12.10;;;4.78;;
23519;SDS011;11936;50.820;4.336;2023-04-20T09:14:27;11.32;;;5.32;;
23519;SDS011;11936;50.820;4.336;2023-04-20T09:16:54;8.52;;;5.18;;
23519;SDS011;11936;50.820;4.336;2023-04-20T09:19:24;16.95;;;6.05;;
23519;SDS011;11936;50.820;4.336;2023-04-20T09:21:52;11.50;;;5.03;;
23519;SDS011;11936;50.820;4.336;2023-04-20T09:24:19;11.53;;;4.70;;
23519;SDS011;11936;50.820;4.336;2023-04-20T09:26:46;9.52;;;5.25;;
23519;SDS011;11936;50.820;4.336;2023-04-20T09:29:18;10.35;;;5.53;;
23519;SDS011;11936;50.820;4.336;2023-04-20T09:31:46;8.93;;;4.93;;
23519;SDS011;11936;50.820;4.336;2023-04-20T09:34:12;13.98;;;5.32;;
23519;SDS011;11936;50.820;4.336;2023-04-20T09:36:39;14.65;;;6.18;;
23519;SDS011;11936;50.820;4.336;2023-04-20T09:41:40;6.45;;;5.13;;
23519;SDS011;11936;50.820;4.336;2023-04-20T09:44:06;13.43;;;5.82;;
23519;SDS011;11936;50.820;4.336;2023-04-20T09:46:34;10.23;;;5.22;;
23519;SDS011;11936;50.820;4.336;2023-04-20T09:49:02;12.27;;;5.70;;
23519;SDS011;11936;50.820;4.336;2023-04-20T09:51:31;9.35;;;5.60;;
23519;SDS011;11936;50.820;4.336;2023-04-20T09:53:59;9.77;;;6.15;;
23519;SDS011;11936;50.820;4.336;2023-04-20T09:56:26;11.77;;;6.10;;
23519;SDS011;11936;50.820;4.336;2023-04-20T09:58:53;19.17;;;6.20;;
23519;SDS011;11936;50.820;4.336;2023-04-20T10:01:19;12.65;;;5.35;;
23519;SDS011;11936;50.820;4.336;2023-04-20T10:03:49;10.65;;;6.15;;
23519;SDS011;11936;50.820;4.336;2023-04-20T10:08:47;11.20;;;5.95;;
23519;SDS011;11936;50.820;4.336;2023-04-20T10:19:34;13.45;;;5.88;;
23519;SDS011;11936;50.820;4.336;2023-04-20T10:22:04;6.55;;;4.70;;
23519;SDS011;11936;50.820;4.336;2023-04-20T10:24:30;8.65;;;4.57;;
23519;SDS011;11936;50.820;4.336;2023-04-20T10:26:56;9.45;;;4.57;;
23519;SDS011;11936;50.820;4.336;2023-04-20T10:29:26;9.20;;;4.75;;
23519;SDS011;11936;50.820;4.336;2023-04-20T10:31:52;8.63;;;4.57;;
23519;SDS011;11936;50.820;4.336;2023-04-20T10:34:29;8.82;;;4.80;;
23519;SDS011;11936;50.820;4.336;2023-04-20T10:39:35;5.68;;;4.63;;
23519;SDS011;11936;50.820;4.336;2023-04-20T10:42:04;6.53;;;4.72;;
23519;SDS011;11936;50.820;4.336;2023-04-20T10:44:30;5.90;;;4.25;;
23519;SDS011;11936;50.820;4.336;2023-04-20T10:46:57;5.00;;;4.40;;
23519;SDS011;11936;50.820;4.336;2023-04-20T10:49:27;6.55;;;4.50;;
23519;SDS011;11936;50.820;4.336;2023-04-20T10:51:53;5.53;;;4.05;;
23519;SDS011;11936;50.820;4.336;2023-04-20T10:54:20;8.50;;;4.65;;
23519;SDS011;11936;50.820;4.336;2023-04-20T10:56:49;7.47;;;4.60;;
23519;SDS011;11936;50.820;4.336;2023-04-20T10:59:20;9.68;;;4.85;;
23519;SDS011;11936;50.820;4.336;2023-04-20T11:01:47;5.13;;;3.80;;
23519;SDS011;11936;50.820;4.336;2023-04-20T11:04:14;10.98;;;4.68;;
23519;SDS011;11936;50.820;4.336;2023-04-20T11:06:40;7.75;;;4.18;;
23519;SDS011;11936;50.820;4.336;2023-04-20T11:12:04;11.40;;;4.80;;
23519;SDS011;11936;50.820;4.336;2023-04-20T11:14:49;4.47;;;4.00;;
23519;SDS011;11936;50.820;4.336;2023-04-20T11:17:18;6.85;;;4.38;;
23519;SDS011;11936;50.820;4.336;2023-04-20T11:19:44;10.85;;;4.80;;
23519;SDS011;11936;50.820;4.336;2023-04-20T11:22:19;7.22;;;4.30;;
23519;SDS011;11936;50.820;4.336;2023-04-20T11:24:45;6.88;;;4.45;;
23519;SDS011;11936;50.820;4.336;2023-04-20T11:27:17;9.68;;;4.75;;
23519;SDS011;11936;50.820;4.336;2023-04-20T11:29:54;6.97;;;4.97;;
23519;SDS011;11936;50.820;4.336;2023-04-20T11:32:21;17.95;;;4.85;;
23519;SDS011;11936;50.820;4.336;2023-04-20T11:34:47;18.40;;;4.95;;
23519;SDS011;11936;50.820;4.336;2023-04-20T11:37:33;8.40;;;4.10;;
23519;SDS011;11936;50.820;4.336;2023-04-20T11:40:11;7.43;;;4.85;;
23519;SDS011;11936;50.820;4.336;2023-04-20T11:42:37;6.80;;;4.20;;
23519;SDS011;11936;50.820;4.336;2023-04-20T11:45:03;13.57;;;5.53;;
23519;SDS011;11936;50.820;4.336;2023-04-20T11:47:29;14.35;;;6.50;;
23519;SDS011;11936;50.820;4.336;2023-04-20T11:49:55;5.88;;;5.00;;
23519;SDS011;11936;50.820;4.336;2023-04-20T11:52:20;7.47;;;5.22;;
23519;SDS011;11936;50.820;4.336;2023-04-20T11:54:46;8.82;;;5.57;;
23519;SDS011;11936;50.820;4.336;2023-04-20T11:57:11;5.85;;;4.32;;
23519;SDS011;11936;50.820;4.336;2023-04-20T11:59:37;5.35;;;4.72;;
23519;SDS011;11936;50.820;4.336;2023-04-20T12:02:03;8.25;;;5.43;;
23519;SDS011;11936;50.820;4.336;2023-04-20T12:04:29;8.55;;;4.72;;
23519;SDS011;11936;50.820;4.336;2023-04-20T12:06:55;5.50;;;4.72;;
23519;SDS011;11936;50.820;4.336;2023-04-20T12:09:23;4.88;;;4.35;;
23519;SDS011;11936;50.820;4.336;2023-04-20T12:11:52;5.10;;;4.30;;
23519;SDS011;11936;50.820;4.336;2023-04-20T12:14:18;13.60;;;5.10;;
23519;SDS011;11936;50.820;4.336;2023-04-20T12:16:44;9.38;;;4.68;;
23519;SDS011;11936;50.820;4.336;2023-04-20T12:19:10;5.78;;;5.18;;
23519;SDS011;11936;50.820;4.336;2023-04-20T12:21:36;6.85;;;4.78;;
23519;SDS011;11936;50.820;4.336;2023-04-20T12:24:01;6.60;;;4.93;;
23519;SDS011;11936;50.820;4.336;2023-04-20T12:26:28;8.45;;;4.80;;
23519;SDS011;11936;50.820;4.336;2023-04-20T12:28:53;9.55;;;5.13;;
23519;SDS011;11936;50.820;4.336;2023-04-20T12:31:19;9.40;;;5.35;;
23519;SDS011;11936;50.820;4.336;2023-04-20T12:33:45;7.82;;;5.05;;
23519;SDS011;11936;50.820;4.336;2023-04-20T12:36:11;12.32;;;5.68;;
23519;SDS011;11936;50.820;4.336;2023-04-20T12:38:36;8.35;;;5.68;;
23519;SDS011;11936;50.820;4.336;2023-04-20T12:41:02;11.27;;;5.68;;
23519;SDS011;11936;50.820;4.336;2023-04-20T12:43:28;7.90;;;5.47;;
23519;SDS011;11936;50.820;4.336;2023-04-20T12:45:55;8.98;;;5.78;;
23519;SDS011;11936;50.820;4.336;2023-04-20T12:48:20;7.88;;;5.47;;
23519;SDS011;11936;50.820;4.336;2023-04-20T12:50:46;5.13;;;4.68;;
23519;SDS011;11936;50.820;4.336;2023-04-20T12:53:12;7.40;;;4.70;;
23519;SDS011;11936;50.820;4.336;2023-04-20T12:55:37;9.45;;;4.97;;
23519;SDS011;11936;50.820;4.336;2023-04-20T12:58:04;7.68;;;5.63;;
23519;SDS011;11936;50.820;4.336;2023-04-20T13:00:30;9.55;;;5.15;;
23519;SDS011;11936;50.820;4.336;2023-04-20T13:02:55;7.97;;;5.43;;
23519;SDS011;11936;50.820;4.336;2023-04-20T13:05:21;9.63;;;5.30;;
23519;SDS011;11936;50.820;4.336;2023-04-20T13:07:46;5.72;;;5.18;;
23519;SDS011;11936;50.820;4.336;2023-04-20T13:10:12;7.55;;;4.93;;
23519;SDS011;11936;50.820;4.336;2023-04-20T13:12:38;5.68;;;5.18;;
23519;SDS011;11936;50.820;4.336;2023-04-20T13:15:05;7.13;;;4.95;;
23519;SDS011;11936;50.820;4.336;2023-04-20T13:17:33;5.10;;;4.60;;
23519;SDS011;11936;50.820;4.336;2023-04-20T13:19:58;7.07;;;5.68;;
23519;SDS011;11936;50.820;4.336;2023-04-20T13:22:24;9.02;;;4.78;;
23519;SDS011;11936;50.820;4.336;2023-04-20T13:24:50;6.35;;;5.10;;
23519;SDS011;11936;50.820;4.336;2023-04-20T13:27:15;6.05;;;4.70;;
23519;SDS011;11936;50.820;4.336;2023-04-20T13:29:41;10.52;;;5.80;;
23519;SDS011;11936;50.820;4.336;2023-04-20T13:32:07;12.40;;;6.75;;
23519;SDS011;11936;50.820;4.336;2023-04-20T13:34:33;12.75;;;6.97;;
23519;SDS011;11936;50.820;4.336;2023-04-20T13:36:59;14.23;;;7.63;;
23519;SDS011;11936;50.820;4.336;2023-04-20T13:39:25;10.13;;;6.63;;
23519;SDS011;11936;50.820;4.336;2023-04-20T13:41:51;8.35;;;6.47;;
23519;SDS011;11936;50.820;4.336;2023-04-20T13:44:17;13.40;;;8.90;;
23519;SDS011;11936;50.820;4.336;2023-04-20T13:46:44;8.45;;;7.03;;
23519;SDS011;11936;50.820;4.336;2023-04-20T13:49:10;6.82;;;6.13;;
23519;SDS011;11936;50.820;4.336;2023-04-20T13:51:37;9.80;;;7.30;;
23519;SDS011;11936;50.820;4.336;2023-04-20T13:54:03;8.05;;;6.68;;
23519;SDS011;11936;50.820;4.336;2023-04-20T13:56:30;7.35;;;6.53;;
23519;SDS011;11936;50.820;4.336;2023-04-20T13:58:57;8.55;;;7.05;;
23519;SDS011;11936;50.820;4.336;2023-04-20T14:01:22;10.45;;;6.75;;
23519;SDS011;11936;50.820;4.336;2023-04-20T14:03:49;8.32;;;7.38;;
23519;SDS011;11936;50.820;4.336;2023-04-20T14:06:16;8.93;;;7.38;;
23519;SDS011;11936;50.820;4.336;2023-04-20T14:08:42;9.65;;;7.32;;
23519;SDS011;11936;50.820;4.336;2023-04-20T14:11:07;8.27;;;7.43;;
23519;SDS011;11936;50.820;4.336;2023-04-20T14:13:33;11.98;;;7.53;;
23519;SDS011;11936;50.820;4.336;2023-04-20T14:15:59;8.23;;;7.40;;
23519;SDS011;11936;50.820;4.336;2023-04-20T14:18:25;11.85;;;7.55;;
23519;SDS011;11936;50.820;4.336;2023-04-20T14:20:50;8.85;;;7.95;;
23519;SDS011;11936;50.820;4.336;2023-04-20T14:23:16;9.10;;;7.10;;
23519;SDS011;11936;50.820;4.336;2023-04-20T14:25:43;8.80;;;7.45;;
23519;SDS011;11936;50.820;4.336;2023-04-20T14:28:08;8.20;;;7.40;;
23519;SDS011;11936;50.820;4.336;2023-04-20T14:30:34;11.00;;;8.30;;
23519;SDS011;11936;50.820;4.336;2023-04-20T14:33:00;8.95;;;7.57;;
23519;SDS011;11936;50.820;4.336;2023-04-20T14:35:26;9.45;;;7.25;;
23519;SDS011;11936;50.820;4.336;2023-04-20T14:37:52;9.25;;;7.53;;
23519;SDS011;11936;50.820;4.336;2023-04-20T14:40:18;7.90;;;7.15;;
23519;SDS011;11936;50.820;4.336;2023-04-20T14:42:45;11.05;;;7.07;;
23519;SDS011;11936;50.820;4.336;2023-04-20T14:45:11;10.90;;;7.53;;
23519;SDS011;11936;50.820;4.336;2023-04-20T14:47:36;7.78;;;7.00;;
23519;SDS011;11936;50.820;4.336;2023-04-20T14:50:03;8.07;;;6.35;;
23519;SDS011;11936;50.820;4.336;2023-04-20T14:52:30;7.80;;;7.10;;
23519;SDS011;11936;50.820;4.336;2023-04-20T14:54:55;7.10;;;6.45;;
23519;SDS011;11936;50.820;4.336;2023-04-20T14:57:21;6.45;;;5.85;;
23519;SDS011;11936;50.820;4.336;2023-04-20T14:59:47;7.10;;;6.40;;
23519;SDS011;11936;50.820;4.336;2023-04-20T15:02:12;8.10;;;6.90;;